Impacts METAR Board
IDs:

KCLT - Charlotte/Douglas In, NC, US

Updated at: 0100 UTC 28 May 2018
Potential Impact None Slight Moderate High
Time 27/13Z 27/14Z 27/15Z 27/16Z 27/17Z 27/18Z 27/19Z 27/20Z 27/21Z 27/22Z 27/23Z 28/00Z 28/01Z
Temp73 75 75 79 81 82 84 83 84 82 80 80 78
Dewpt72 72 72 72 72 72 70 70 65 66 67 68 66
Altim30.02 30.03 30.03 30.03 30.02 30.01 29.99 29.97 29.96 29.96 29.97 29.98 29.99
VIS10 10 10 10 10 10 10 10 10 10 10 10 10
CIG10 10 10 15 25 25 35 250 250 200 200 150 150
CoverBKNBKNBKNBKNBKNBKNBKNBKNBKNBKNOVCOVCOVC
FltCatMVFRMVFRMVFRMVFRMVFRMVFRVFRVFRVFRVFRVFRVFRVFR
WX--------------------------
WDir230230120200220180180170180170180130160
WSpd8 5 6 7 5 8 10 10 11 10 8 9 10
WGst-- -- -- -- -- -- -- -- -- -- -- -- --
Raw hourly METARs
KCLT 271252Z 23008KT 10SM BKN010 BKN015 23/22 A3002 RMK SLP160 T02300220
KCLT 271352Z 23005KT 10SM BKN010 BKN015 24/22 A3003 RMK SLP163 T02400220
KCLT 271452Z 12006KT 10SM BKN010 BKN015 24/22 A3003 RMK SLP164 T02400220 52001
KCLT 271552Z 20007KT 10SM BKN015 BKN023 26/22 A3003 RMK SLP163 T02600220
KCLT 271652Z 22005KT 10SM BKN025 27/22 A3002 RMK SLP160 T02700220
KCLT 271752Z COR 18008KT 10SM BKN025 28/22 A3001 RMK SLP153 T02800220 10280 20220 57002
KCLT 271852Z 18010KT 10SM SCT030 BKN035 BKN060 29/21 A2999 RMK SLP146 T02870211
KCLT 271952Z 17010KT 10SM SCT030 SCT150 BKN250 28/21 A2997 RMK SLP142 T02840211
KCLT 272052Z 18011KT 10SM FEW037 FEW150 BKN250 29/18 A2996 RMK TCU DSNT NW-N SLP137 T02890183 57016
KCLT 272152Z 17010KT 10SM FEW036 SCT150 BKN200 28/18 A2996 RMK TCU DSNT NW-N AND SE SLP137 T02780189
KCLT 272252Z 18008KT 10SM FEW036 SCT150 OVC200 27/19 A2997 RMK CB DSNT NW TCU DSNT N AND S SLP140 T02670194
KCLT 272352Z 13009KT 10SM FEW035TCU BKN150 OVC200 27/20 A2998 RMK TCU SW AND DSNT E SLP142 T02670200 10289 20267 52005
KCLT 280052Z 16010KT 10SM FEW034 FEW060 BKN150 OVC200 26/19 A2999 RMK SLP147 T02560189



Page loaded:  01:36 UTC  |   06:36 PM Pacific  |   07:36 PM Mountain  |   08:36 PM Central  |   09:36 PM Eastern

 

ADVISORIES

FORECASTS

FORECASTS

OBSERVATIONS

USER TOOLS

ABOUT US